Terminal Aerodrome Forecast
Issued by NWS

Home | Current Version | Previous Version | Text Only | Print | Product List | Glossary Off
Versions: 1 2 3 4 5 6 7 8 9 10 11 12 13 14 15 16 17 18 19 20 21

000
FTUS43 KICT 181140
TAFHUT
TAF
KHUT 181140Z 1812/1912 17015G20KT P6SM BKN250
     FM181400 18022G32KT P6SM BKN250
     FM181700 18028G38KT P6SM SCT250
     FM190200 18022G30KT P6SM SCT200 WS020/21050KT
     FM190600 18020G28KT P6SM BKN035 WS020/21055KT
     FM190900 19018G26KT P6SM BKN025 WS020/23045KT=

USA.gov is the U.S. government's official web portal to all federal, state and local government web resources and services.